createdAt,value
2018-03-02T00:01:14.934Z,97.40
2018-03-02T00:03:43.275Z,97.70
2018-03-02T00:06:10.830Z,97.50
2018-03-02T00:08:38.363Z,97.70
2018-03-02T00:11:05.931Z,97.80
2018-03-02T00:13:34.267Z,97.80
2018-03-02T00:16:01.835Z,97.80
2018-03-02T00:18:29.505Z,97.90
2018-03-02T00:20:57.095Z,97.80
2018-03-02T00:23:24.753Z,97.50
2018-03-02T00:25:52.530Z,97.70
2018-03-02T00:28:20.074Z,97.60
2018-03-02T00:30:48.375Z,97.60
2018-03-02T00:33:15.931Z,97.50
2018-03-02T00:35:44.234Z,97.50
2018-03-02T00:38:11.818Z,97.40
2018-03-02T00:40:39.356Z,97.40
2018-03-02T00:43:07.697Z,97.60
2018-03-02T00:45:35.264Z,97.60
2018-03-02T00:48:02.830Z,97.40
2018-03-02T00:50:30.367Z,97.40
2018-03-02T00:52:58.780Z,97.30
2018-03-02T00:55:26.364Z,97.30
2018-03-02T00:57:53.899Z,97.40
2018-03-02T01:00:22.196Z,97.10
2018-03-02T01:02:49.783Z,97.10
2018-03-02T01:05:17.311Z,97.30
2018-03-02T01:07:44.870Z,97.30
2018-03-02T01:10:12.601Z,97.10
2018-03-02T01:12:40.145Z,97.20
2018-03-02T01:15:08.564Z,97.20
2018-03-02T01:17:36.132Z,97.20
2018-03-02T01:20:03.681Z,97.10
2018-03-02T01:22:32.009Z,97.20
2018-03-02T01:24:59.576Z,97.20
2018-03-02T01:27:27.105Z,97.10
2018-03-02T01:29:55.434Z,96.90
2018-03-02T01:32:23.003Z,96.80
2018-03-02T01:34:50.529Z,96.60
2018-03-02T01:37:18.861Z,96.60
2018-03-02T01:39:46.424Z,96.70
2018-03-02T01:42:13.955Z,96.60
2018-03-02T01:44:41.573Z,96.40
2018-03-02T01:47:09.147Z,96.50
2018-03-02T01:49:36.670Z,96.50
2018-03-02T01:52:04.231Z,96.40
2018-03-02T01:54:31.763Z,96.40
2018-03-02T01:56:59.429Z,96.40
2018-03-02T01:59:27.098Z,96.50
2018-03-02T02:01:54.622Z,96.40
2018-03-02T02:04:22.962Z,96.40
2018-03-02T02:06:50.536Z,96.40
2018-03-02T02:09:18.122Z,96.50
2018-03-02T02:11:45.776Z,96.40
2018-03-02T02:14:13.323Z,96.40
2018-03-02T02:16:41.642Z,96.70
2018-03-02T02:19:09.229Z,96.60
2018-03-02T02:21:36.782Z,96.80
2018-03-02T02:24:04.346Z,96.30
2018-03-02T02:26:32.024Z,96.30
2018-03-02T02:28:59.591Z,96.50
2018-03-02T02:31:27.123Z,96.50
2018-03-02T02:33:54.679Z,96.50
2018-03-02T02:36:23.030Z,96.90
2018-03-02T02:38:50.555Z,96.60
2018-03-02T02:41:18.897Z,96.50
2018-03-02T02:43:46.426Z,96.60
2018-03-02T02:46:14.744Z,96.40
2018-03-02T02:48:42.303Z,96.30
2018-03-02T02:51:10.091Z,96.40
2018-03-02T02:53:37.671Z,96.60
2018-03-02T02:56:05.335Z,96.50
2018-03-02T02:58:32.904Z,96.30
2018-03-02T03:01:00.483Z,96.50
2018-03-02T03:03:28.016Z,96.60
2018-03-02T03:05:56.331Z,96.50
2018-03-02T03:08:23.862Z,96.40
2018-03-02T03:10:51.481Z,96.30
2018-03-02T03:13:19.052Z,96.30
2018-03-02T03:15:46.630Z,96.30
2018-03-02T03:18:14.164Z,96.20
2018-03-02T03:20:42.514Z,96.10
2018-03-02T03:23:10.157Z,96.10
2018-03-02T03:25:37.698Z,95.70
2018-03-02T03:28:06.017Z,95.90
2018-03-02T03:30:33.576Z,95.80
2018-03-02T03:33:01.114Z,95.90
2018-03-02T03:35:28.681Z,95.80
2018-03-02T03:37:56.219Z,95.90
2018-03-02T03:40:23.809Z,95.60
2018-03-02T03:42:51.339Z,95.70
2018-03-02T03:45:19.016Z,95.90
2018-03-02T03:47:46.574Z,95.50
2018-03-02T03:50:14.138Z,95.90
2018-03-02T03:52:42.430Z,96.00
2018-03-02T03:55:10.026Z,96.00
2018-03-02T03:57:37.599Z,95.90
2018-03-02T04:00:05.166Z,96.20
2018-03-02T04:02:32.698Z,96.20
2018-03-02T04:05:01.126Z,96.20
2018-03-02T04:07:28.795Z,96.10
2018-03-02T04:09:56.379Z,96.30
2018-03-02T04:12:24.040Z,96.40
2018-03-02T04:14:51.583Z,96.60
2018-03-02T04:17:19.933Z,96.70
2018-03-02T04:19:47.485Z,96.70
2018-03-02T04:22:15.028Z,96.90
2018-03-02T04:24:43.369Z,97.30
2018-03-02T04:27:10.905Z,97.30
2018-03-02T04:29:38.678Z,97.40
2018-03-02T04:32:06.252Z,97.60
2018-03-02T04:34:33.806Z,97.60
2018-03-02T04:37:02.218Z,97.60
2018-03-02T04:39:29.784Z,97.90
2018-03-02T04:41:57.370Z,97.30
2018-03-02T04:44:24.950Z,97.50
2018-03-02T04:46:52.506Z,97.20
2018-03-02T04:49:20.042Z,97.40
2018-03-02T04:51:48.375Z,97.50
2018-03-02T04:54:15.928Z,97.50
2018-03-02T04:56:43.707Z,97.40
2018-03-02T04:59:11.242Z,97.30
2018-03-02T05:01:39.564Z,97.30
2018-03-02T05:04:07.239Z,97.10
2018-03-02T05:06:34.809Z,97.10
2018-03-02T05:09:02.483Z,97.10
2018-03-02T05:11:30.032Z,97.00
2018-03-02T05:13:58.333Z,96.90
2018-03-02T05:16:26.016Z,96.90
2018-03-02T05:18:53.590Z,96.80
2018-03-02T05:21:21.467Z,96.90
2018-03-02T05:23:49.140Z,96.80
2018-03-02T05:26:16.675Z,96.70
2018-03-02T05:28:44.211Z,96.80
2018-03-02T05:31:12.060Z,96.80
2018-03-02T05:33:39.760Z,96.70
2018-03-02T05:36:07.349Z,96.80
2018-03-02T05:38:34.903Z,96.80
2018-03-02T05:41:02.550Z,96.90
2018-03-02T05:43:30.166Z,96.90
2018-03-02T05:45:57.793Z,96.90
2018-03-02T05:48:25.471Z,96.80
2018-03-02T05:50:53.062Z,97.00
2018-03-02T05:53:20.618Z,97.10
2018-03-02T05:55:48.185Z,97.20
2018-03-02T05:58:15.980Z,97.10
2018-03-02T06:00:43.523Z,99.90
2018-03-02T06:03:11.067Z,99.90
2018-03-02T06:05:38.660Z,97.50
2018-03-02T06:08:06.250Z,96.50
2018-03-02T06:10:33.813Z,96.70
2018-03-02T06:13:01.400Z,96.90
2018-03-02T06:15:29.060Z,96.90
2018-03-02T06:17:56.644Z,96.80
2018-03-02T06:20:24.202Z,96.60
2018-03-02T06:22:51.778Z,96.70
2018-03-02T06:25:19.311Z,96.70
2018-03-02T06:27:47.654Z,96.40
2018-03-02T06:30:15.228Z,96.10
2018-03-02T06:32:42.911Z,96.00
2018-03-02T06:35:10.487Z,95.80
2018-03-02T06:37:38.066Z,95.90
2018-03-02T06:40:05.728Z,95.60
2018-03-02T06:42:33.335Z,95.60
2018-03-02T06:45:01.774Z,95.40
2018-03-02T06:47:29.339Z,95.40
2018-03-02T06:49:56.879Z,95.10
2018-03-02T06:52:25.297Z,94.90
2018-03-02T06:54:52.834Z,94.90
2018-03-02T06:57:21.159Z,94.50
2018-03-02T06:59:48.744Z,94.50
2018-03-02T07:02:16.283Z,94.50
2018-03-02T07:04:44.584Z,94.50
2018-03-02T07:07:12.142Z,94.50
2018-03-02T07:09:39.735Z,94.20
2018-03-02T07:12:07.301Z,94.50
2018-03-02T07:14:34.843Z,94.40
2018-03-02T07:17:03.262Z,93.90
2018-03-02T07:19:30.949Z,93.90
2018-03-02T07:21:58.529Z,93.70
2018-03-02T07:24:26.062Z,93.60
2018-03-02T07:26:54.376Z,93.20
2018-03-02T07:29:21.985Z,93.20
2018-03-02T07:31:49.616Z,93.20
2018-03-02T07:34:17.285Z,93.00
2018-03-02T07:36:44.850Z,92.60
2018-03-02T07:39:12.546Z,92.20
2018-03-02T07:41:40.082Z,92.50
2018-03-02T07:44:08.383Z,92.00
2018-03-02T07:46:35.946Z,92.00
2018-03-02T07:49:04.255Z,91.00
2018-03-02T07:51:31.821Z,91.00
2018-03-02T07:53:59.406Z,90.60
2018-03-02T07:56:26.970Z,90.00
2018-03-02T07:58:54.639Z,89.10
2018-03-02T08:01:22.178Z,88.80
2018-03-02T08:03:50.510Z,85.50
2018-03-02T08:06:18.046Z,84.70
2018-03-02T08:08:46.473Z,82.10
2018-03-02T08:11:14.002Z,82.00
2018-03-02T08:13:42.426Z,80.90
2018-03-02T08:16:09.993Z,80.90
2018-03-02T08:18:37.575Z,80.20
2018-03-02T08:21:05.110Z,78.60
2018-03-02T08:23:33.438Z,78.20
2018-03-02T08:26:00.985Z,78.20
2018-03-02T08:28:28.550Z,77.50
2018-03-02T08:30:56.973Z,76.00
2018-03-02T08:33:24.551Z,76.00
2018-03-02T08:35:52.104Z,74.70
2018-03-02T08:38:19.682Z,74.00
2018-03-02T08:40:47.246Z,73.40
2018-03-02T08:43:14.818Z,73.80
2018-03-02T08:45:42.388Z,72.90
2018-03-02T08:48:10.070Z,72.00
2018-03-02T08:50:37.613Z,71.30
2018-03-02T08:53:05.936Z,71.60
2018-03-02T08:55:33.645Z,71.50
2018-03-02T08:58:01.291Z,72.10
2018-03-02T09:00:28.815Z,72.10
2018-03-02T09:02:57.138Z,71.00
2018-03-02T09:05:24.674Z,70.90
2018-03-02T09:07:53.034Z,69.70
2018-03-02T09:10:20.566Z,69.70
2018-03-02T09:12:48.190Z,70.10
2018-03-02T09:15:15.721Z,69.70
2018-03-02T09:17:43.282Z,70.60
2018-03-02T09:20:10.843Z,69.90
2018-03-02T09:22:38.371Z,69.00
2018-03-02T09:25:05.926Z,68.30
2018-03-02T09:27:33.453Z,71.90
2018-03-02T09:30:01.097Z,72.00
2018-03-02T09:32:28.719Z,69.60
2018-03-02T09:34:56.287Z,69.40
2018-03-02T09:37:23.958Z,69.00
2018-03-02T09:39:51.519Z,67.30
2018-03-02T09:42:19.050Z,67.00
2018-03-02T09:44:46.685Z,66.40
2018-03-02T09:47:14.351Z,66.40
2018-03-02T09:49:41.971Z,64.40
2018-03-02T09:52:09.582Z,63.10
2018-03-02T09:54:37.151Z,63.40
2018-03-02T09:57:04.726Z,64.10
2018-03-02T09:59:32.398Z,64.60
2018-03-02T10:01:59.934Z,64.60
2018-03-02T10:04:28.262Z,64.20
2018-03-02T10:06:55.847Z,64.10
2018-03-02T10:09:23.603Z,64.30
2018-03-02T10:11:51.140Z,63.50
2018-03-02T10:14:19.461Z,65.10
2018-03-02T10:16:47.032Z,64.40
2018-03-02T10:19:14.611Z,63.70
2018-03-02T10:21:42.146Z,64.30
2018-03-02T10:24:10.458Z,63.90
2018-03-02T10:26:38.066Z,63.90
2018-03-02T10:29:05.642Z,63.10
2018-03-02T10:31:33.218Z,62.10
2018-03-02T10:34:00.770Z,61.50
2018-03-02T10:36:28.327Z,61.80
2018-03-02T10:38:55.931Z,62.80
2018-03-02T10:41:23.519Z,62.90
2018-03-02T10:43:51.073Z,61.60
2018-03-02T10:46:18.608Z,61.60
2018-03-02T10:48:46.498Z,61.70
2018-03-02T10:51:14.031Z,62.40
2018-03-02T10:53:42.343Z,62.80
2018-03-02T10:56:09.918Z,62.70
2018-03-02T10:58:37.489Z,61.90
2018-03-02T11:01:10.823Z,61.80
2018-03-02T11:03:39.910Z,60.90
2018-03-02T11:06:07.488Z,61.00
2018-03-02T11:08:35.026Z,61.80
2018-03-02T11:11:03.354Z,61.90
2018-03-02T11:13:31.005Z,61.80
2018-03-02T11:15:58.790Z,62.00
2018-03-02T11:18:27.243Z,62.10
2018-03-02T11:20:54.899Z,65.30
2018-03-02T11:23:22.398Z,61.30
2018-03-02T11:25:50.718Z,62.10
2018-03-02T11:28:18.381Z,62.00
2018-03-02T11:30:45.966Z,62.40
2018-03-02T11:33:13.512Z,63.30
2018-03-02T11:35:41.132Z,64.10
2018-03-02T11:38:08.645Z,64.30
2018-03-02T11:40:36.949Z,62.70
2018-03-02T11:43:04.632Z,62.70
2018-03-02T11:45:32.203Z,61.80
2018-03-02T11:47:59.769Z,61.40
2018-03-02T11:50:27.344Z,61.00
2018-03-02T11:52:54.973Z,61.00
2018-03-02T11:55:22.582Z,62.90
2018-03-02T11:57:50.159Z,62.10
2018-03-02T12:00:17.690Z,62.70
2018-03-02T12:02:46.002Z,62.10
2018-03-02T12:05:14.442Z,62.00
2018-03-02T12:07:42.360Z,62.00
2018-03-02T12:10:09.915Z,62.80
2018-03-02T12:12:37.535Z,63.50
2018-03-02T12:15:05.308Z,63.60
2018-03-02T12:17:33.903Z,63.40
2018-03-02T12:20:01.578Z,63.80
2018-03-02T12:22:29.151Z,63.50
2018-03-02T12:24:56.752Z,64.00
2018-03-02T12:27:24.395Z,63.90
2018-03-02T12:29:52.231Z,63.50
2018-03-02T12:32:19.856Z,62.60
2018-03-02T12:34:47.662Z,62.20
2018-03-02T12:37:15.299Z,62.90
2018-03-02T12:39:43.077Z,63.20
2018-03-02T12:42:10.960Z,64.10
2018-03-02T12:44:38.714Z,63.90
2018-03-02T12:47:06.988Z,64.40
2018-03-02T12:49:35.404Z,63.30
2018-03-02T12:52:02.964Z,63.30
2018-03-02T12:54:30.713Z,63.30
2018-03-02T12:56:58.560Z,64.10
2018-03-02T12:59:26.090Z,64.10
2018-03-02T13:01:53.675Z,64.20
2018-03-02T13:04:21.204Z,65.30
2018-03-02T13:06:48.823Z,63.90
2018-03-02T13:09:16.399Z,62.90
2018-03-02T13:11:43.934Z,63.10
2018-03-02T13:14:12.230Z,64.20
2018-03-02T13:16:40.575Z,63.40
2018-03-02T13:19:08.104Z,63.40
2018-03-02T13:21:35.641Z,63.10
2018-03-02T13:24:04.067Z,63.70
2018-03-02T13:26:43.462Z,63.70
2018-03-02T13:29:11.021Z,64.20
2018-03-02T13:31:38.585Z,63.90
2018-03-02T13:34:17.992Z,64.80
2018-03-02T13:36:45.550Z,64.00
2018-03-02T13:39:14.569Z,63.80
2018-03-02T13:41:54.854Z,64.30
2018-03-02T13:44:22.387Z,64.30
2018-03-02T13:46:50.742Z,64.50
2018-03-02T13:49:30.174Z,64.40
2018-03-02T13:51:57.942Z,62.90
2018-03-02T13:54:25.477Z,63.10
2018-03-02T13:59:56.286Z,64.10
2018-03-02T14:02:36.156Z,64.10
2018-03-02T14:05:03.830Z,64.70
2018-03-02T14:07:31.415Z,64.60
2018-03-02T14:09:58.967Z,64.20
2018-03-02T14:12:26.509Z,63.40
2018-03-02T14:14:54.832Z,63.80
2018-03-02T14:17:22.373Z,63.50
2018-03-02T14:19:50.897Z,64.00
2018-03-02T14:22:18.425Z,64.00
2018-03-02T14:24:46.046Z,64.30
2018-03-02T14:27:13.610Z,64.10
2018-03-02T14:29:41.144Z,64.10
2018-03-02T14:32:10.211Z,64.70
2018-03-02T14:34:37.744Z,64.70
2018-03-02T14:37:05.303Z,65.80
2018-03-02T14:39:33.620Z,66.70
2018-03-02T14:42:01.195Z,66.60
2018-03-02T14:44:28.738Z,66.70
2018-03-02T14:46:57.129Z,67.20
2018-03-02T14:49:25.423Z,68.00
2018-03-02T14:51:53.753Z,68.40
2018-03-02T14:54:21.314Z,68.40
2018-03-02T14:56:48.991Z,69.00
2018-03-02T14:59:16.546Z,69.50
2018-03-02T15:01:44.126Z,69.20
2018-03-02T15:04:11.792Z,69.00
2018-03-02T15:06:39.569Z,69.30
2018-03-02T15:09:07.100Z,70.30
2018-03-02T15:11:35.413Z,70.00
2018-03-02T15:14:02.974Z,70.00
2018-03-02T15:16:31.298Z,69.50
2018-03-02T15:18:58.826Z,69.50
2018-03-02T15:21:27.168Z,70.10
2018-03-02T15:23:54.704Z,70.10
2018-03-02T15:26:22.299Z,71.00
2018-03-02T15:28:49.878Z,71.50
2018-03-02T15:31:17.443Z,71.90
2018-03-02T15:33:44.979Z,71.80
2018-03-02T15:36:13.394Z,72.10
2018-03-02T15:38:40.974Z,72.10
2018-03-02T15:41:08.510Z,72.70
2018-03-02T15:43:36.824Z,73.40
2018-03-02T15:46:04.399Z,73.30
2018-03-02T15:48:31.935Z,73.10
2018-03-02T15:51:00.278Z,73.90
2018-03-02T15:53:27.825Z,73.90
2018-03-02T15:55:55.366Z,74.00
2018-03-02T15:58:23.707Z,74.60
2018-03-02T16:00:51.259Z,74.50
2018-03-02T16:03:18.790Z,74.40
2018-03-02T16:05:46.362Z,75.10
2018-03-02T16:08:14.688Z,75.80
2018-03-02T16:10:42.216Z,75.70
2018-03-02T16:13:09.797Z,76.40
2018-03-02T16:15:38.114Z,76.60
2018-03-02T16:18:05.648Z,76.20
2018-03-02T16:20:33.222Z,77.30
2018-03-02T16:23:00.835Z,78.60
2018-03-02T16:25:28.375Z,78.00
2018-03-02T16:27:56.739Z,79.10
2018-03-02T16:30:24.275Z,79.00
2018-03-02T16:32:51.940Z,79.10
2018-03-02T16:35:19.522Z,79.70
2018-03-02T16:37:47.051Z,80.70
2018-03-02T16:40:15.388Z,81.70
2018-03-02T16:42:42.973Z,81.50
2018-03-02T16:45:10.522Z,81.40
2018-03-02T16:47:38.063Z,82.00
2018-03-02T16:50:06.407Z,82.90
2018-03-02T16:52:33.985Z,82.80
2018-03-02T16:55:01.522Z,83.80
2018-03-02T16:57:29.119Z,84.50
2018-03-02T16:59:56.680Z,84.90
2018-03-02T17:02:24.235Z,84.70
2018-03-02T17:04:51.924Z,85.10
2018-03-02T17:07:19.450Z,84.90
2018-03-02T17:09:47.779Z,86.30
2018-03-02T17:12:15.354Z,86.20
2018-03-02T17:14:42.887Z,86.20
2018-03-02T17:17:11.297Z,86.80
2018-03-02T17:19:38.879Z,86.80
2018-03-02T17:22:06.540Z,86.90
2018-03-02T17:24:34.215Z,87.50
2018-03-02T17:27:01.789Z,87.40
2018-03-02T17:29:29.326Z,87.20
2018-03-02T17:31:57.646Z,88.50
2018-03-02T17:34:25.222Z,88.40
2018-03-02T17:36:52.759Z,89.40
2018-03-02T17:39:21.059Z,89.60
2018-03-02T17:41:49.581Z,89.60
2018-03-02T17:44:17.143Z,89.60
2018-03-02T17:46:44.682Z,90.10
2018-03-02T17:49:13.032Z,90.20
2018-03-02T17:51:40.558Z,90.20
2018-03-02T17:54:08.249Z,90.50
2018-03-02T17:56:35.829Z,90.70
2018-03-02T17:59:03.374Z,91.10
2018-03-02T18:01:31.677Z,95.10
2018-03-02T18:03:59.259Z,95.10
2018-03-02T18:06:26.939Z,93.30
2018-03-02T18:08:54.487Z,94.60
2018-03-02T18:11:22.067Z,95.10
2018-03-02T18:13:49.843Z,94.70
2018-03-02T18:16:17.371Z,94.60
2018-03-02T18:18:46.623Z,93.60
2018-03-02T18:21:14.152Z,93.70
2018-03-02T18:23:41.770Z,91.10
2018-03-02T18:26:09.339Z,91.30
2018-03-02T18:28:37.663Z,91.70
2018-03-02T18:31:05.298Z,91.70
2018-03-02T18:33:32.870Z,91.90
2018-03-02T18:36:00.406Z,92.20
2018-03-02T18:38:28.834Z,95.80
2018-03-02T18:40:56.410Z,95.70
2018-03-02T18:43:23.982Z,94.50
2018-03-02T18:45:51.519Z,93.90
2018-03-02T18:48:19.864Z,93.10
2018-03-02T18:50:47.438Z,93.30
2018-03-02T18:53:15.181Z,92.40
2018-03-02T18:55:42.765Z,92.40
2018-03-02T18:58:10.459Z,92.60
2018-03-02T19:00:38.010Z,92.90
2018-03-02T19:03:05.668Z,92.70
2018-03-02T19:05:33.242Z,92.70
2018-03-02T19:08:00.778Z,92.90
2018-03-02T19:10:29.320Z,98.50
2018-03-02T19:12:56.865Z,98.30
2018-03-02T19:15:24.555Z,95.90
2018-03-02T19:17:52.145Z,95.00
2018-03-02T19:20:19.689Z,94.30
2018-03-02T19:22:47.368Z,93.50
2018-03-02T19:25:14.944Z,92.90
2018-03-02T19:27:42.549Z,92.50
2018-03-02T19:30:11.594Z,91.10
2018-03-02T19:32:39.935Z,91.10
2018-03-02T19:35:07.581Z,91.10
2018-03-02T19:37:35.149Z,91.60
2018-03-02T19:40:02.826Z,92.00
2018-03-02T19:42:30.381Z,92.00
2018-03-02T19:44:57.920Z,91.80
2018-03-02T19:47:25.496Z,92.00
2018-03-02T19:49:53.112Z,92.20
2018-03-02T19:52:20.783Z,92.10
2018-03-02T19:54:48.372Z,92.10
2018-03-02T19:57:15.925Z,91.90
2018-03-02T19:59:43.523Z,91.90
2018-03-02T20:02:11.115Z,91.50
2018-03-02T20:04:38.742Z,91.70
2018-03-02T20:07:06.312Z,91.70
2018-03-02T20:09:33.986Z,91.70
2018-03-02T20:12:01.512Z,91.60
2018-03-02T20:14:29.822Z,92.20
2018-03-02T20:16:58.154Z,92.10
2018-03-02T20:19:25.734Z,92.10
2018-03-02T20:21:53.396Z,92.00
2018-03-02T20:24:20.978Z,92.20
2018-03-02T20:26:48.518Z,92.50
2018-03-02T20:29:16.099Z,92.60
2018-03-02T20:31:44.599Z,92.50
2018-03-02T20:34:12.136Z,92.50
2018-03-02T20:36:40.446Z,93.20
2018-03-02T20:39:08.028Z,93.20
2018-03-02T20:41:35.561Z,92.50
2018-03-02T20:44:03.875Z,92.80
2018-03-02T20:46:31.550Z,92.80
2018-03-02T20:48:59.086Z,92.80
2018-03-02T20:51:27.527Z,93.30
2018-03-02T20:53:55.186Z,93.10
2018-03-02T20:56:22.765Z,93.30
2018-03-02T20:58:50.329Z,93.40
2018-03-02T21:01:17.912Z,93.50
2018-03-02T21:03:45.503Z,93.50
2018-03-02T21:06:13.045Z,93.60
2018-03-02T21:08:40.622Z,93.60
2018-03-02T21:11:08.188Z,93.70
2018-03-02T21:13:35.714Z,93.60
2018-03-02T21:16:04.075Z,94.00
2018-03-02T21:18:31.630Z,94.00
2018-03-02T21:20:59.187Z,94.10
2018-03-02T21:23:26.780Z,94.30
2018-03-02T21:25:54.434Z,94.30
2018-03-02T21:28:21.972Z,94.20
2018-03-02T21:30:50.419Z,94.40
2018-03-02T21:33:17.950Z,94.30
2018-03-02T21:35:46.245Z,94.30
2018-03-02T21:38:13.826Z,94.20
2018-03-02T21:40:41.402Z,94.30
2018-03-02T21:43:08.946Z,94.40
2018-03-02T21:45:37.289Z,94.50
2018-03-02T21:48:04.932Z,94.40
2018-03-02T21:50:32.523Z,94.40
2018-03-02T21:53:00.083Z,94.40
2018-03-02T21:55:27.644Z,94.50
2018-03-02T21:57:55.180Z,94.60
2018-03-02T22:00:22.754Z,94.50
2018-03-02T22:02:51.055Z,94.80
2018-03-02T22:05:19.350Z,94.80
2018-03-02T22:07:46.942Z,94.80
2018-03-02T22:10:15.225Z,94.80
2018-03-02T22:12:42.878Z,95.00
2018-03-02T22:15:11.219Z,95.00
2018-03-02T22:17:38.790Z,95.00
2018-03-02T22:20:06.629Z,95.30
2018-03-02T22:22:34.227Z,95.20
2018-03-02T22:25:01.760Z,95.20
2018-03-02T22:27:30.061Z,95.30
2018-03-02T22:29:57.638Z,95.30
2018-03-02T22:32:25.179Z,95.30
2018-03-02T22:34:53.497Z,95.40
2018-03-02T22:37:21.075Z,95.40
2018-03-02T22:39:48.618Z,95.50
2018-03-02T22:42:16.920Z,95.50
2018-03-02T22:44:44.604Z,95.50
2018-03-02T22:47:12.142Z,95.60
2018-03-02T22:49:40.462Z,95.50
2018-03-02T22:52:08.037Z,95.50
2018-03-02T22:54:35.574Z,95.50
2018-03-02T22:57:03.894Z,95.40
2018-03-02T22:59:31.474Z,95.40
2018-03-02T23:01:59.004Z,95.50
2018-03-02T23:04:27.309Z,95.70
2018-03-02T23:06:55.713Z,95.70
2018-03-02T23:09:23.248Z,95.70
2018-03-02T23:11:51.573Z,95.70
2018-03-02T23:14:19.153Z,95.70
2018-03-02T23:16:46.686Z,95.60
2018-03-02T23:19:14.997Z,95.80
2018-03-02T23:21:42.679Z,95.80
2018-03-02T23:24:10.213Z,95.80
2018-03-02T23:26:37.747Z,95.80
2018-03-02T23:29:05.370Z,95.90
2018-03-02T23:31:33.723Z,96.00
2018-03-02T23:34:01.457Z,96.00
2018-03-02T23:36:29.245Z,95.90
2018-03-02T23:38:56.778Z,96.00
2018-03-02T23:41:24.306Z,95.90
2018-03-02T23:43:52.208Z,96.00
2018-03-02T23:46:19.938Z,96.00
2018-03-02T23:48:47.473Z,96.10
2018-03-02T23:51:15.838Z,96.10
2018-03-02T23:53:43.376Z,96.00
2018-03-02T23:56:10.993Z,96.00
2018-03-02T23:58:38.578Z,96.20
